sensor_id;sensor_type;location;lat;lon;timestamp;temperature;humidity
61117;DHT22;47002;50.856;6.580;2022-08-01T00:00:16;19.40;73.70
61117;DHT22;47002;50.856;6.580;2022-08-01T00:02:42;19.30;73.70
61117;DHT22;47002;50.856;6.580;2022-08-01T00:05:09;19.30;73.80
61117;DHT22;47002;50.856;6.580;2022-08-01T00:07:35;19.30;73.90
61117;DHT22;47002;50.856;6.580;2022-08-01T00:10:00;19.30;74.00
61117;DHT22;47002;50.856;6.580;2022-08-01T00:12:28;19.20;74.10
61117;DHT22;47002;50.856;6.580;2022-08-01T00:14:53;19.20;74.20
61117;DHT22;47002;50.856;6.580;2022-08-01T00:17:19;19.20;74.40
61117;DHT22;47002;50.856;6.580;2022-08-01T00:19:45;19.20;74.60
61117;DHT22;47002;50.856;6.580;2022-08-01T00:22:10;19.10;74.90
61117;DHT22;47002;50.856;6.580;2022-08-01T00:24:36;19.10;75.10
61117;DHT22;47002;50.856;6.580;2022-08-01T00:27:02;19.10;75.50
61117;DHT22;47002;50.856;6.580;2022-08-01T00:29:29;19.10;75.70
61117;DHT22;47002;50.856;6.580;2022-08-01T00:31:55;19.00;76.40
61117;DHT22;47002;50.856;6.580;2022-08-01T00:34:21;18.90;76.80
61117;DHT22;47002;50.856;6.580;2022-08-01T00:36:46;18.90;77.20
61117;DHT22;47002;50.856;6.580;2022-08-01T00:39:12;18.80;77.80
61117;DHT22;47002;50.856;6.580;2022-08-01T00:41:38;18.70;78.30
61117;DHT22;47002;50.856;6.580;2022-08-01T00:44:04;18.60;78.90
61117;DHT22;47002;50.856;6.580;2022-08-01T00:46:32;18.60;79.20
61117;DHT22;47002;50.856;6.580;2022-08-01T00:48:57;18.50;79.80
61117;DHT22;47002;50.856;6.580;2022-08-01T00:51:23;18.40;80.40
61117;DHT22;47002;50.856;6.580;2022-08-01T00:53:50;18.40;80.60
61117;DHT22;47002;50.856;6.580;2022-08-01T00:56:16;18.30;81.10
61117;DHT22;47002;50.856;6.580;2022-08-01T00:58:42;18.30;81.50
61117;DHT22;47002;50.856;6.580;2022-08-01T01:01:08;18.20;81.60
61117;DHT22;47002;50.856;6.580;2022-08-01T01:03:35;18.20;82.00
61117;DHT22;47002;50.856;6.580;2022-08-01T01:06:08;18.10;82.20
61117;DHT22;47002;50.856;6.580;2022-08-01T01:08:42;18.10;82.40
61117;DHT22;47002;50.856;6.580;2022-08-01T01:11:13;18.10;82.40
61117;DHT22;47002;50.856;6.580;2022-08-01T01:13:44;18.10;82.40
61117;DHT22;47002;50.856;6.580;2022-08-01T01:16:12;18.10;82.50
61117;DHT22;47002;50.856;6.580;2022-08-01T01:18:43;18.10;82.60
61117;DHT22;47002;50.856;6.580;2022-08-01T01:24:14;18.00;82.80
61117;DHT22;47002;50.856;6.580;2022-08-01T01:26:50;18.00;83.00
61117;DHT22;47002;50.856;6.580;2022-08-01T01:29:21;18.00;83.00
61117;DHT22;47002;50.856;6.580;2022-08-01T01:31:53;18.00;83.10
61117;DHT22;47002;50.856;6.580;2022-08-01T01:34:21;18.00;83.00
61117;DHT22;47002;50.856;6.580;2022-08-01T01:36:48;18.10;83.20
61117;DHT22;47002;50.856;6.580;2022-08-01T01:39:15;18.00;83.30
61117;DHT22;47002;50.856;6.580;2022-08-01T01:41:43;18.00;83.40
61117;DHT22;47002;50.856;6.580;2022-08-01T01:44:10;18.00;83.80
61117;DHT22;47002;50.856;6.580;2022-08-01T01:46:39;18.00;83.90
61117;DHT22;47002;50.856;6.580;2022-08-01T01:49:05;17.90;84.10
61117;DHT22;47002;50.856;6.580;2022-08-01T01:51:33;17.90;84.30
61117;DHT22;47002;50.856;6.580;2022-08-01T01:53:59;17.90;84.40
61117;DHT22;47002;50.856;6.580;2022-08-01T01:56:27;17.90;84.40
61117;DHT22;47002;50.856;6.580;2022-08-01T01:58:56;17.90;84.40
61117;DHT22;47002;50.856;6.580;2022-08-01T02:01:26;17.90;84.40
61117;DHT22;47002;50.856;6.580;2022-08-01T02:03:55;18.00;84.40
61117;DHT22;47002;50.856;6.580;2022-08-01T02:06:22;17.90;84.40
61117;DHT22;47002;50.856;6.580;2022-08-01T02:08:49;17.90;84.30
61117;DHT22;47002;50.856;6.580;2022-08-01T02:11:15;17.90;84.20
61117;DHT22;47002;50.856;6.580;2022-08-01T02:13:41;17.90;84.10
61117;DHT22;47002;50.856;6.580;2022-08-01T02:16:09;17.90;84.10
61117;DHT22;47002;50.856;6.580;2022-08-01T02:18:35;18.00;84.00
61117;DHT22;47002;50.856;6.580;2022-08-01T02:21:04;18.00;83.90
61117;DHT22;47002;50.856;6.580;2022-08-01T02:23:32;18.00;83.80
61117;DHT22;47002;50.856;6.580;2022-08-01T02:26:00;18.00;83.70
61117;DHT22;47002;50.856;6.580;2022-08-01T02:28:30;18.10;83.60
61117;DHT22;47002;50.856;6.580;2022-08-01T02:31:01;18.10;83.40
61117;DHT22;47002;50.856;6.580;2022-08-01T02:33:33;18.10;83.30
61117;DHT22;47002;50.856;6.580;2022-08-01T02:36:02;18.10;83.30
61117;DHT22;47002;50.856;6.580;2022-08-01T02:38:31;18.10;83.20
61117;DHT22;47002;50.856;6.580;2022-08-01T02:41:07;18.10;83.10
61117;DHT22;47002;50.856;6.580;2022-08-01T02:43:35;18.10;83.20
61117;DHT22;47002;50.856;6.580;2022-08-01T02:46:02;18.10;83.30
61117;DHT22;47002;50.856;6.580;2022-08-01T02:48:30;18.10;83.30
61117;DHT22;47002;50.856;6.580;2022-08-01T02:51:00;18.00;83.40
61117;DHT22;47002;50.856;6.580;2022-08-01T02:53:31;18.10;83.50
61117;DHT22;47002;50.856;6.580;2022-08-01T02:55:59;18.10;83.50
61117;DHT22;47002;50.856;6.580;2022-08-01T02:58:26;18.00;83.50
61117;DHT22;47002;50.856;6.580;2022-08-01T03:00:52;18.00;83.60
61117;DHT22;47002;50.856;6.580;2022-08-01T03:03:19;18.00;83.70
61117;DHT22;47002;50.856;6.580;2022-08-01T03:05:45;18.00;83.70
61117;DHT22;47002;50.856;6.580;2022-08-01T03:08:13;18.00;83.70
61117;DHT22;47002;50.856;6.580;2022-08-01T03:10:43;18.00;83.80
61117;DHT22;47002;50.856;6.580;2022-08-01T03:13:11;18.00;83.80
61117;DHT22;47002;50.856;6.580;2022-08-01T03:15:39;17.90;83.90
61117;DHT22;47002;50.856;6.580;2022-08-01T03:18:09;17.90;83.90
61117;DHT22;47002;50.856;6.580;2022-08-01T03:20:35;18.00;84.00
61117;DHT22;47002;50.856;6.580;2022-08-01T03:23:04;18.00;83.90
61117;DHT22;47002;50.856;6.580;2022-08-01T03:25:31;18.00;84.00
61117;DHT22;47002;50.856;6.580;2022-08-01T03:28:02;17.90;84.00
61117;DHT22;47002;50.856;6.580;2022-08-01T03:30:29;17.90;84.00
61117;DHT22;47002;50.856;6.580;2022-08-01T03:32:57;17.90;84.00
61117;DHT22;47002;50.856;6.580;2022-08-01T03:35:26;17.90;84.10
61117;DHT22;47002;50.856;6.580;2022-08-01T03:37:54;17.90;84.00
61117;DHT22;47002;50.856;6.580;2022-08-01T03:40:23;18.00;84.00
61117;DHT22;47002;50.856;6.580;2022-08-01T03:42:53;17.90;84.00
61117;DHT22;47002;50.856;6.580;2022-08-01T03:45:24;18.00;84.00
61117;DHT22;47002;50.856;6.580;2022-08-01T03:47:55;18.00;84.00
61117;DHT22;47002;50.856;6.580;2022-08-01T03:50:22;18.00;83.90
61117;DHT22;47002;50.856;6.580;2022-08-01T03:52:49;18.00;84.00
61117;DHT22;47002;50.856;6.580;2022-08-01T03:55:15;17.90;83.90
61117;DHT22;47002;50.856;6.580;2022-08-01T03:57:42;18.00;84.00
61117;DHT22;47002;50.856;6.580;2022-08-01T04:00:10;18.00;84.00
61117;DHT22;47002;50.856;6.580;2022-08-01T04:02:38;18.00;84.10
61117;DHT22;47002;50.856;6.580;2022-08-01T04:05:05;18.00;84.10
61117;DHT22;47002;50.856;6.580;2022-08-01T04:07:33;18.00;84.10
61117;DHT22;47002;50.856;6.580;2022-08-01T04:09:59;17.90;84.10
61117;DHT22;47002;50.856;6.580;2022-08-01T04:12:25;17.90;84.10
61117;DHT22;47002;50.856;6.580;2022-08-01T04:14:50;17.90;84.10
61117;DHT22;47002;50.856;6.580;2022-08-01T04:17:16;18.00;84.20
61117;DHT22;47002;50.856;6.580;2022-08-01T04:19:44;18.00;84.20
61117;DHT22;47002;50.856;6.580;2022-08-01T04:22:10;18.00;84.20
61117;DHT22;47002;50.856;6.580;2022-08-01T04:24:37;18.00;84.20
61117;DHT22;47002;50.856;6.580;2022-08-01T04:27:06;17.90;84.20
61117;DHT22;47002;50.856;6.580;2022-08-01T04:29:33;17.90;84.20
61117;DHT22;47002;50.856;6.580;2022-08-01T04:32:02;18.00;84.20
61117;DHT22;47002;50.856;6.580;2022-08-01T04:34:30;18.00;84.10
61117;DHT22;47002;50.856;6.580;2022-08-01T04:36:59;18.00;84.10
61117;DHT22;47002;50.856;6.580;2022-08-01T04:39:27;18.00;84.10
61117;DHT22;47002;50.856;6.580;2022-08-01T04:41:54;18.00;84.10
61117;DHT22;47002;50.856;6.580;2022-08-01T04:44:20;18.00;84.10
61117;DHT22;47002;50.856;6.580;2022-08-01T04:46:46;18.00;84.10
61117;DHT22;47002;50.856;6.580;2022-08-01T04:49:13;18.00;84.10
61117;DHT22;47002;50.856;6.580;2022-08-01T04:51:50;18.00;84.10
61117;DHT22;47002;50.856;6.580;2022-08-01T04:54:17;18.00;84.10
61117;DHT22;47002;50.856;6.580;2022-08-01T04:56:43;18.00;84.10
61117;DHT22;47002;50.856;6.580;2022-08-01T04:59:09;18.00;84.10
61117;DHT22;47002;50.856;6.580;2022-08-01T05:01:34;18.00;84.10
61117;DHT22;47002;50.856;6.580;2022-08-01T05:04:00;18.00;84.20
61117;DHT22;47002;50.856;6.580;2022-08-01T05:06:26;18.00;84.20
61117;DHT22;47002;50.856;6.580;2022-08-01T05:08:52;18.00;84.20
61117;DHT22;47002;50.856;6.580;2022-08-01T05:11:19;18.00;84.30
61117;DHT22;47002;50.856;6.580;2022-08-01T05:13:44;18.00;84.40
61117;DHT22;47002;50.856;6.580;2022-08-01T05:16:10;18.00;84.40
61117;DHT22;47002;50.856;6.580;2022-08-01T05:18:36;18.00;84.40
61117;DHT22;47002;50.856;6.580;2022-08-01T05:21:01;18.00;84.50
61117;DHT22;47002;50.856;6.580;2022-08-01T05:23:27;18.00;84.50
61117;DHT22;47002;50.856;6.580;2022-08-01T05:25:53;18.00;84.60
61117;DHT22;47002;50.856;6.580;2022-08-01T05:28:20;18.00;84.60
61117;DHT22;47002;50.856;6.580;2022-08-01T05:30:45;18.00;84.50
61117;DHT22;47002;50.856;6.580;2022-08-01T05:33:11;18.00;84.50
61117;DHT22;47002;50.856;6.580;2022-08-01T05:35:37;18.00;84.50
61117;DHT22;47002;50.856;6.580;2022-08-01T05:38:03;18.10;84.40
61117;DHT22;47002;50.856;6.580;2022-08-01T05:40:28;18.10;84.70
61117;DHT22;47002;50.856;6.580;2022-08-01T05:42:54;18.10;85.30
61117;DHT22;47002;50.856;6.580;2022-08-01T05:45:21;18.10;85.40
61117;DHT22;47002;50.856;6.580;2022-08-01T05:47:47;18.10;85.70
61117;DHT22;47002;50.856;6.580;2022-08-01T05:50:13;18.10;85.80
61117;DHT22;47002;50.856;6.580;2022-08-01T05:52:38;18.00;85.60
61117;DHT22;47002;50.856;6.580;2022-08-01T05:55:05;18.10;85.60
61117;DHT22;47002;50.856;6.580;2022-08-01T05:57:31;18.10;85.50
61117;DHT22;47002;50.856;6.580;2022-08-01T05:59:57;18.10;85.60
61117;DHT22;47002;50.856;6.580;2022-08-01T06:02:24;18.10;85.60
61117;DHT22;47002;50.856;6.580;2022-08-01T06:04:49;18.10;85.30
61117;DHT22;47002;50.856;6.580;2022-08-01T06:07:15;18.10;85.50
61117;DHT22;47002;50.856;6.580;2022-08-01T06:09:41;18.10;85.50
61117;DHT22;47002;50.856;6.580;2022-08-01T06:12:07;18.10;85.40
61117;DHT22;47002;50.856;6.580;2022-08-01T06:14:32;18.10;85.40
61117;DHT22;47002;50.856;6.580;2022-08-01T06:16:58;18.10;85.40
61117;DHT22;47002;50.856;6.580;2022-08-01T06:19:25;18.10;85.60
61117;DHT22;47002;50.856;6.580;2022-08-01T06:21:51;18.10;85.70
61117;DHT22;47002;50.856;6.580;2022-08-01T06:24:16;18.10;85.70
61117;DHT22;47002;50.856;6.580;2022-08-01T06:26:42;18.10;85.70
61117;DHT22;47002;50.856;6.580;2022-08-01T06:29:08;18.20;85.70
61117;DHT22;47002;50.856;6.580;2022-08-01T06:31:33;18.20;85.60
61117;DHT22;47002;50.856;6.580;2022-08-01T06:33:59;18.20;85.40
61117;DHT22;47002;50.856;6.580;2022-08-01T06:36:26;18.30;85.20
61117;DHT22;47002;50.856;6.580;2022-08-01T06:38:52;18.30;85.00
61117;DHT22;47002;50.856;6.580;2022-08-01T06:41:18;18.40;84.90
61117;DHT22;47002;50.856;6.580;2022-08-01T06:43:43;18.40;84.50
61117;DHT22;47002;50.856;6.580;2022-08-01T06:46:09;18.30;84.70
61117;DHT22;47002;50.856;6.580;2022-08-01T06:48:35;18.30;84.70
61117;DHT22;47002;50.856;6.580;2022-08-01T06:51:00;18.30;84.60
61117;DHT22;47002;50.856;6.580;2022-08-01T06:53:27;18.40;85.30
61117;DHT22;47002;50.856;6.580;2022-08-01T06:55:53;18.40;85.50
61117;DHT22;47002;50.856;6.580;2022-08-01T06:58:19;18.40;86.00
61117;DHT22;47002;50.856;6.580;2022-08-01T07:00:44;18.40;86.00
61117;DHT22;47002;50.856;6.580;2022-08-01T07:03:10;18.40;85.90
61117;DHT22;47002;50.856;6.580;2022-08-01T07:05:36;18.30;85.90
61117;DHT22;47002;50.856;6.580;2022-08-01T07:08:01;18.30;85.40
61117;DHT22;47002;50.856;6.580;2022-08-01T07:10:29;18.20;84.90
61117;DHT22;47002;50.856;6.580;2022-08-01T07:12:54;18.30;85.10
61117;DHT22;47002;50.856;6.580;2022-08-01T07:15:20;18.20;85.20
61117;DHT22;47002;50.856;6.580;2022-08-01T07:17:46;18.30;85.80
61117;DHT22;47002;50.856;6.580;2022-08-01T07:20:12;18.40;85.30
61117;DHT22;47002;50.856;6.580;2022-08-01T07:22:38;18.50;84.30
61117;DHT22;47002;50.856;6.580;2022-08-01T07:25:05;18.70;83.80
61117;DHT22;47002;50.856;6.580;2022-08-01T07:27:33;19.00;83.40
61117;DHT22;47002;50.856;6.580;2022-08-01T07:29:58;19.20;82.00
61117;DHT22;47002;50.856;6.580;2022-08-01T07:32:25;19.30;81.50
61117;DHT22;47002;50.856;6.580;2022-08-01T07:34:50;19.40;80.50
61117;DHT22;47002;50.856;6.580;2022-08-01T07:37:16;19.60;79.80
61117;DHT22;47002;50.856;6.580;2022-08-01T07:39:42;19.70;78.40
61117;DHT22;47002;50.856;6.580;2022-08-01T07:42:08;19.70;78.10
61117;DHT22;47002;50.856;6.580;2022-08-01T07:44:35;19.80;77.30
61117;DHT22;47002;50.856;6.580;2022-08-01T07:47:00;19.90;77.50
61117;DHT22;47002;50.856;6.580;2022-08-01T07:49:26;19.80;77.60
61117;DHT22;47002;50.856;6.580;2022-08-01T07:51:52;19.80;77.90
61117;DHT22;47002;50.856;6.580;2022-08-01T07:54:18;19.80;76.80
61117;DHT22;47002;50.856;6.580;2022-08-01T07:56:43;19.90;76.80
61117;DHT22;47002;50.856;6.580;2022-08-01T07:59:09;20.10;76.70
61117;DHT22;47002;50.856;6.580;2022-08-01T08:01:36;20.20;74.90
61117;DHT22;47002;50.856;6.580;2022-08-01T08:04:02;20.40;73.90
61117;DHT22;47002;50.856;6.580;2022-08-01T08:06:28;20.40;73.40
61117;DHT22;47002;50.856;6.580;2022-08-01T08:08:53;20.50;72.70
61117;DHT22;47002;50.856;6.580;2022-08-01T08:11:19;20.40;73.10
61117;DHT22;47002;50.856;6.580;2022-08-01T08:13:45;20.50;73.70
61117;DHT22;47002;50.856;6.580;2022-08-01T08:16:10;20.40;74.30
61117;DHT22;47002;50.856;6.580;2022-08-01T08:18:37;20.40;74.10
61117;DHT22;47002;50.856;6.580;2022-08-01T08:21:03;20.60;74.40
61117;DHT22;47002;50.856;6.580;2022-08-01T08:23:29;20.60;73.30
61117;DHT22;47002;50.856;6.580;2022-08-01T08:25:54;20.70;72.80
61117;DHT22;47002;50.856;6.580;2022-08-01T08:28:20;20.80;72.20
61117;DHT22;47002;50.856;6.580;2022-08-01T08:30:46;20.90;72.00
61117;DHT22;47002;50.856;6.580;2022-08-01T08:33:12;20.90;71.20
61117;DHT22;47002;50.856;6.580;2022-08-01T08:35:40;21.10;70.90
61117;DHT22;47002;50.856;6.580;2022-08-01T08:38:06;21.30;70.00
61117;DHT22;47002;50.856;6.580;2022-08-01T08:40:32;21.40;69.70
61117;DHT22;47002;50.856;6.580;2022-08-01T08:43:00;21.40;70.20
61117;DHT22;47002;50.856;6.580;2022-08-01T08:45:27;21.60;69.70
61117;DHT22;47002;50.856;6.580;2022-08-01T08:47:54;21.70;68.90
61117;DHT22;47002;50.856;6.580;2022-08-01T08:50:20;21.60;67.70
61117;DHT22;47002;50.856;6.580;2022-08-01T08:52:48;21.40;68.40
61117;DHT22;47002;50.856;6.580;2022-08-01T08:55:16;21.40;69.20
61117;DHT22;47002;50.856;6.580;2022-08-01T08:57:43;21.40;69.40
61117;DHT22;47002;50.856;6.580;2022-08-01T09:00:10;21.40;68.90
61117;DHT22;47002;50.856;6.580;2022-08-01T09:02:36;21.50;68.90
61117;DHT22;47002;50.856;6.580;2022-08-01T09:05:06;21.60;68.70
61117;DHT22;47002;50.856;6.580;2022-08-01T09:07:32;21.60;69.30
61117;DHT22;47002;50.856;6.580;2022-08-01T09:09:59;21.50;69.70
61117;DHT22;47002;50.856;6.580;2022-08-01T09:12:25;21.50;70.00
61117;DHT22;47002;50.856;6.580;2022-08-01T09:14:50;21.50;68.50
61117;DHT22;47002;50.856;6.580;2022-08-01T09:17:16;21.60;69.00
61117;DHT22;47002;50.856;6.580;2022-08-01T09:19:43;21.70;68.20
61117;DHT22;47002;50.856;6.580;2022-08-01T09:22:11;21.90;68.00
61117;DHT22;47002;50.856;6.580;2022-08-01T09:24:38;22.10;67.10
61117;DHT22;47002;50.856;6.580;2022-08-01T09:27:17;22.00;66.90
61117;DHT22;47002;50.856;6.580;2022-08-01T09:29:43;22.00;67.00
61117;DHT22;47002;50.856;6.580;2022-08-01T09:32:09;22.00;67.00
61117;DHT22;47002;50.856;6.580;2022-08-01T09:34:35;22.10;67.30
61117;DHT22;47002;50.856;6.580;2022-08-01T09:37:02;22.00;66.80
61117;DHT22;47002;50.856;6.580;2022-08-01T09:39:29;21.90;66.70
61117;DHT22;47002;50.856;6.580;2022-08-01T09:41:57;22.00;66.80
61117;DHT22;47002;50.856;6.580;2022-08-01T09:44:38;22.10;67.60
61117;DHT22;47002;50.856;6.580;2022-08-01T09:47:04;22.30;66.40
61117;DHT22;47002;50.856;6.580;2022-08-01T09:49:32;22.30;65.70
61117;DHT22;47002;50.856;6.580;2022-08-01T09:51:59;22.30;65.60
61117;DHT22;47002;50.856;6.580;2022-08-01T09:54:34;22.40;65.00
61117;DHT22;47002;50.856;6.580;2022-08-01T09:57:12;22.40;63.60
61117;DHT22;47002;50.856;6.580;2022-08-01T09:59:42;22.40;63.50
61117;DHT22;47002;50.856;6.580;2022-08-01T10:02:08;22.50;64.60
61117;DHT22;47002;50.856;6.580;2022-08-01T10:04:34;22.50;65.10
61117;DHT22;47002;50.856;6.580;2022-08-01T10:07:04;22.50;65.40
61117;DHT22;47002;50.856;6.580;2022-08-01T10:09:32;22.40;65.50
61117;DHT22;47002;50.856;6.580;2022-08-01T10:11:59;22.30;66.30
61117;DHT22;47002;50.856;6.580;2022-08-01T10:14:26;22.30;66.80
61117;DHT22;47002;50.856;6.580;2022-08-01T10:16:56;22.30;66.20
61117;DHT22;47002;50.856;6.580;2022-08-01T10:19:23;22.30;66.10
61117;DHT22;47002;50.856;6.580;2022-08-01T10:21:49;22.30;65.80
61117;DHT22;47002;50.856;6.580;2022-08-01T10:24:16;22.40;66.00
61117;DHT22;47002;50.856;6.580;2022-08-01T10:26:43;22.50;65.80
61117;DHT22;47002;50.856;6.580;2022-08-01T10:29:11;22.40;66.90
61117;DHT22;47002;50.856;6.580;2022-08-01T10:31:37;22.30;67.60
61117;DHT22;47002;50.856;6.580;2022-08-01T10:34:04;22.30;67.40
61117;DHT22;47002;50.856;6.580;2022-08-01T10:36:31;22.30;67.00
61117;DHT22;47002;50.856;6.580;2022-08-01T10:38:58;22.40;66.00
61117;DHT22;47002;50.856;6.580;2022-08-01T10:41:24;22.60;65.10
61117;DHT22;47002;50.856;6.580;2022-08-01T10:43:51;23.00;64.30
61117;DHT22;47002;50.856;6.580;2022-08-01T10:46:18;23.20;60.60
61117;DHT22;47002;50.856;6.580;2022-08-01T10:48:50;23.10;59.90
61117;DHT22;47002;50.856;6.580;2022-08-01T10:51:18;23.10;60.80
61117;DHT22;47002;50.856;6.580;2022-08-01T10:53:49;23.10;61.60
61117;DHT22;47002;50.856;6.580;2022-08-01T10:56:15;23.10;61.70
61117;DHT22;47002;50.856;6.580;2022-08-01T10:58:42;23.10;61.40
61117;DHT22;47002;50.856;6.580;2022-08-01T11:01:22;23.10;61.00
61117;DHT22;47002;50.856;6.580;2022-08-01T11:04:11;23.10;60.10
61117;DHT22;47002;50.856;6.580;2022-08-01T11:06:53;23.10;60.50
61117;DHT22;47002;50.856;6.580;2022-08-01T11:09:29;23.20;61.40
61117;DHT22;47002;50.856;6.580;2022-08-01T11:12:00;23.20;61.50
61117;DHT22;47002;50.856;6.580;2022-08-01T11:14:26;23.20;61.10
61117;DHT22;47002;50.856;6.580;2022-08-01T11:16:52;23.20;60.90
61117;DHT22;47002;50.856;6.580;2022-08-01T11:19:18;23.10;56.90
61117;DHT22;47002;50.856;6.580;2022-08-01T11:22:00;23.00;56.70
61117;DHT22;47002;50.856;6.580;2022-08-01T11:24:54;23.30;55.80
61117;DHT22;47002;50.856;6.580;2022-08-01T11:27:21;23.50;55.60
61117;DHT22;47002;50.856;6.580;2022-08-01T11:30:24;23.60;55.90
61117;DHT22;47002;50.856;6.580;2022-08-01T11:32:52;23.70;55.40
61117;DHT22;47002;50.856;6.580;2022-08-01T11:35:18;23.70;55.00
61117;DHT22;47002;50.856;6.580;2022-08-01T11:37:46;23.80;54.60
61117;DHT22;47002;50.856;6.580;2022-08-01T11:40:16;23.90;53.30
61117;DHT22;47002;50.856;6.580;2022-08-01T11:42:42;23.90;52.60
61117;DHT22;47002;50.856;6.580;2022-08-01T11:45:08;24.00;52.60
61117;DHT22;47002;50.856;6.580;2022-08-01T11:47:44;24.10;53.10
61117;DHT22;47002;50.856;6.580;2022-08-01T11:50:30;24.30;52.20
61117;DHT22;47002;50.856;6.580;2022-08-01T11:52:58;24.60;52.10
61117;DHT22;47002;50.856;6.580;2022-08-01T11:55:26;24.70;51.60
61117;DHT22;47002;50.856;6.580;2022-08-01T11:57:59;24.90;51.60
61117;DHT22;47002;50.856;6.580;2022-08-01T12:00:24;25.10;49.80
61117;DHT22;47002;50.856;6.580;2022-08-01T12:02:57;25.20;49.70
61117;DHT22;47002;50.856;6.580;2022-08-01T12:05:23;25.30;49.10
61117;DHT22;47002;50.856;6.580;2022-08-01T12:07:50;25.40;48.50
61117;DHT22;47002;50.856;6.580;2022-08-01T12:10:19;25.00;49.70
61117;DHT22;47002;50.856;6.580;2022-08-01T12:12:48;25.10;50.30
61117;DHT22;47002;50.856;6.580;2022-08-01T12:15:14;25.10;50.20
61117;DHT22;47002;50.856;6.580;2022-08-01T12:17:42;25.10;50.10
61117;DHT22;47002;50.856;6.580;2022-08-01T12:20:10;25.10;49.50
61117;DHT22;47002;50.856;6.580;2022-08-01T12:22:36;25.10;49.30
61117;DHT22;47002;50.856;6.580;2022-08-01T12:25:06;25.10;49.50
61117;DHT22;47002;50.856;6.580;2022-08-01T12:27:33;25.20;49.50
61117;DHT22;47002;50.856;6.580;2022-08-01T12:29:59;25.30;47.70
61117;DHT22;47002;50.856;6.580;2022-08-01T12:32:27;25.30;46.40
61117;DHT22;47002;50.856;6.580;2022-08-01T12:34:54;25.30;46.90
61117;DHT22;47002;50.856;6.580;2022-08-01T12:37:21;25.30;46.80
61117;DHT22;47002;50.856;6.580;2022-08-01T12:39:47;25.40;46.80
61117;DHT22;47002;50.856;6.580;2022-08-01T12:42:13;25.40;47.30
61117;DHT22;47002;50.856;6.580;2022-08-01T12:44:43;25.60;47.50
61117;DHT22;47002;50.856;6.580;2022-08-01T12:47:10;25.70;45.90
61117;DHT22;47002;50.856;6.580;2022-08-01T12:49:37;25.60;46.50
61117;DHT22;47002;50.856;6.580;2022-08-01T12:52:04;25.60;45.80
61117;DHT22;47002;50.856;6.580;2022-08-01T12:54:30;25.70;45.50
61117;DHT22;47002;50.856;6.580;2022-08-01T12:56:55;25.60;46.10
61117;DHT22;47002;50.856;6.580;2022-08-01T12:59:23;25.30;45.70
61117;DHT22;47002;50.856;6.580;2022-08-01T13:01:51;25.10;46.20
61117;DHT22;47002;50.856;6.580;2022-08-01T13:04:16;25.10;46.10
61117;DHT22;47002;50.856;6.580;2022-08-01T13:06:42;24.90;47.00
61117;DHT22;47002;50.856;6.580;2022-08-01T13:09:08;25.00;46.10
61117;DHT22;47002;50.856;6.580;2022-08-01T13:11:34;25.10;44.40
61117;DHT22;47002;50.856;6.580;2022-08-01T13:14:00;25.10;43.50
61117;DHT22;47002;50.856;6.580;2022-08-01T13:16:26;25.00;43.50
61117;DHT22;47002;50.856;6.580;2022-08-01T13:18:54;24.80;43.80
61117;DHT22;47002;50.856;6.580;2022-08-01T13:21:22;24.80;44.50
61117;DHT22;47002;50.856;6.580;2022-08-01T13:24:02;24.80;44.50
61117;DHT22;47002;50.856;6.580;2022-08-01T13:26:39;24.90;44.60
61117;DHT22;47002;50.856;6.580;2022-08-01T13:29:04;25.00;43.80
61117;DHT22;47002;50.856;6.580;2022-08-01T13:31:32;24.90;44.20
61117;DHT22;47002;50.856;6.580;2022-08-01T13:33:59;24.90;44.40
61117;DHT22;47002;50.856;6.580;2022-08-01T13:36:25;25.00;43.80
61117;DHT22;47002;50.856;6.580;2022-08-01T13:38:51;24.90;43.90
61117;DHT22;47002;50.856;6.580;2022-08-01T13:41:17;24.80;44.00
61117;DHT22;47002;50.856;6.580;2022-08-01T13:43:42;24.70;44.70
61117;DHT22;47002;50.856;6.580;2022-08-01T13:46:08;24.60;44.90
61117;DHT22;47002;50.856;6.580;2022-08-01T13:48:34;24.40;45.50
61117;DHT22;47002;50.856;6.580;2022-08-01T13:51:01;24.30;45.80
61117;DHT22;47002;50.856;6.580;2022-08-01T13:53:27;24.30;44.30
61117;DHT22;47002;50.856;6.580;2022-08-01T13:55:53;24.40;43.50
61117;DHT22;47002;50.856;6.580;2022-08-01T13:58:19;24.50;43.20
61117;DHT22;47002;50.856;6.580;2022-08-01T14:00:45;24.60;43.00
61117;DHT22;47002;50.856;6.580;2022-08-01T14:03:10;24.80;42.70
61117;DHT22;47002;50.856;6.580;2022-08-01T14:05:37;24.90;42.60
61117;DHT22;47002;50.856;6.580;2022-08-01T14:08:04;24.80;42.40
61117;DHT22;47002;50.856;6.580;2022-08-01T14:10:30;24.60;42.70
61117;DHT22;47002;50.856;6.580;2022-08-01T14:12:56;24.70;42.10
61117;DHT22;47002;50.856;6.580;2022-08-01T14:15:21;24.80;42.20
61117;DHT22;47002;50.856;6.580;2022-08-01T14:17:47;24.80;42.20
61117;DHT22;47002;50.856;6.580;2022-08-01T14:20:13;24.80;42.60
61117;DHT22;47002;50.856;6.580;2022-08-01T14:22:39;24.80;42.70
61117;DHT22;47002;50.856;6.580;2022-08-01T14:25:07;24.90;42.20
61117;DHT22;47002;50.856;6.580;2022-08-01T14:27:33;24.90;42.20
61117;DHT22;47002;50.856;6.580;2022-08-01T14:29:58;24.90;42.50
61117;DHT22;47002;50.856;6.580;2022-08-01T14:32:24;24.80;42.50
61117;DHT22;47002;50.856;6.580;2022-08-01T14:34:50;25.10;42.10
61117;DHT22;47002;50.856;6.580;2022-08-01T14:37:15;25.40;41.60
61117;DHT22;47002;50.856;6.580;2022-08-01T14:39:41;25.60;41.40
61117;DHT22;47002;50.856;6.580;2022-08-01T14:42:08;25.80;41.10
61117;DHT22;47002;50.856;6.580;2022-08-01T14:44:34;26.10;40.50
61117;DHT22;47002;50.856;6.580;2022-08-01T14:46:59;26.30;39.70
61117;DHT22;47002;50.856;6.580;2022-08-01T14:49:25;26.60;39.30
61117;DHT22;47002;50.856;6.580;2022-08-01T14:51:51;27.00;38.70
61117;DHT22;47002;50.856;6.580;2022-08-01T14:54:17;27.50;37.70
61117;DHT22;47002;50.856;6.580;2022-08-01T14:56:42;28.10;36.20
61117;DHT22;47002;50.856;6.580;2022-08-01T14:59:09;28.60;35.20
61117;DHT22;47002;50.856;6.580;2022-08-01T15:01:35;28.40;35.90
61117;DHT22;47002;50.856;6.580;2022-08-01T15:04:01;28.10;36.50
61117;DHT22;47002;50.856;6.580;2022-08-01T15:06:26;27.80;36.70
61117;DHT22;47002;50.856;6.580;2022-08-01T15:08:52;27.60;37.10
61117;DHT22;47002;50.856;6.580;2022-08-01T15:11:18;27.10;37.70
61117;DHT22;47002;50.856;6.580;2022-08-01T15:13:44;26.60;38.40
61117;DHT22;47002;50.856;6.580;2022-08-01T15:16:11;25.90;40.60
61117;DHT22;47002;50.856;6.580;2022-08-01T15:18:36;25.60;42.40
61117;DHT22;47002;50.856;6.580;2022-08-01T15:21:02;25.40;44.80
61117;DHT22;47002;50.856;6.580;2022-08-01T15:23:28;25.10;45.90
61117;DHT22;47002;50.856;6.580;2022-08-01T15:25:53;24.80;47.20
61117;DHT22;47002;50.856;6.580;2022-08-01T15:28:19;24.80;47.80
61117;DHT22;47002;50.856;6.580;2022-08-01T15:30:45;25.20;46.70
61117;DHT22;47002;50.856;6.580;2022-08-01T15:33:12;25.80;46.30